臺東航空站 - ATIS

METAR RCFN 161200Z 36008KT 320V030 9999 -RA FEW015 SCT028 BKN036 21/18 Q1013 NOSIG RMK A2992=

站台狀態:Offline
最後更新:2022-05-17 02:00:01